Latest Coastal Weather Observations for Lucinda

IDQ60701

Issued at 7:15 pm EST Tuesday 22 July 2014 (issued every 10 minutes, with the page automatically refreshed every 10 minutes)

About coastal observations | Map of coastal stations | Coastal observations for QLD | Marine services | Other Formats
Station Details ID: 032141 Name: LUCINDA POINT Lat: -18.52 Lon: 146.39 Height: 10.0 m
Data from the previous 72 hours. | See also: Recent months for locations in Queensland
Date/Time
EST
Temp

°C
Wind Pressure Rain
since 9am
mm
Weather Cloud Vis
km
Sea
Height
m
Swell
Dir
 
Speed
knots
Gust
knots
hPa Trend Height
m
Period
s
Dir
22/07:00pm 20.3 N 4 4 1017.5 - 0.0 - - - - - - -
22/06:30pm 20.4 NNE 3 4 1017.0 - 0.0 - - - - - - -
22/06:00pm 20.7 ESE 4 6 1016.7 - 0.0 - - - - - - -
22/05:30pm 21.9 SE 4 7 1016.5 - 0.0 - - - - - - -
22/05:00pm 22.3 SSE 3 5 1016.6 - 0.0 - - - - - - -
22/04:30pm 22.5 SE 3 5 1016.5 - 0.0 - - - - - - -
22/04:00pm 21.7 S 3 5 1016.4 - 0.0 - - - - - - -
22/03:30pm 21.6 S 4 7 1016.6 - 0.0 - - - - - - -
22/03:00pm 21.1 SSE 4 5 1016.6 - 0.0 - - - - - - -
22/02:30pm 20.9 S 5 7 1016.8 - 0.0 - - - - - - -
22/02:00pm 20.8 S 6 8 1017.0 - 0.0 - - - - - - -
22/01:30pm 20.6 S 6 8 1017.3 - 0.0 - - - - - - -
22/01:00pm 20.2 S 8 9 1017.7 - 0.0 - - - - - - -
22/12:30pm 20.2 S 8 10 1018.4 - 0.0 - - - - - - -
22/12:00pm 20.0 S 9 10 1019.0 - 0.0 - - - - - - -
22/11:30am 19.9 S 9 10 1019.4 - 0.0 - - - - - - -
22/11:00am 19.5 SSW 8 10 1019.8 - 0.0 - - - - - - -
22/10:30am 19.0 SSW 8 9 1020.2 - 0.0 - - - - - - -
22/10:00am 18.9 SW 8 9 1020.4 - 0.0 - - - - - - -
22/09:30am 18.1 SW 9 10 1020.4 - 0.0 - - - - - - -
22/09:00am 17.5 SW 9 10 1020.3 - 0.0 - - - - - - -
22/08:30am 17.2 WSW 8 9 1020.2 - 0.0 - - - - - - -
22/08:00am 16.7 WSW 8 9 1019.9 - 0.0 - - - - - - -
22/07:30am 16.4 WSW 8 9 1019.7 - 0.0 - - - - - - -
22/07:00am 16.2 WSW 8 9 1019.6 - 0.0 - - - - - - -
22/06:30am 16.5 SW 8 9 1019.4 - 0.0 - - - - - - -
22/06:00am 16.5 WSW 9 10 1019.0 - 0.0 - - - - - - -
22/05:30am 16.4 WSW 8 9 1018.8 - 0.0 - - - - - - -
22/05:00am 16.8 WSW 8 9 1018.7 - 0.0 - - - - - - -
22/04:30am 16.7 WSW 9 11 1018.6 - 0.0 - - - - - - -
22/04:00am 16.9 WSW 9 10 1018.7 - 0.0 - - - - - - -
22/03:30am 17.2 WSW 9 10 1018.8 - 0.0 - - - - - - -
22/03:00am 17.0 WSW 9 10 1019.0 - 0.0 - - - - - - -
22/02:30am 16.9 WSW 9 10 1019.1 - 0.0 - - - - - - -
22/02:00am 17.0 WSW 9 11 1019.3 - 0.0 - - - - - - -
22/01:30am 16.9 WSW 10 11 1019.5 - 0.0 - - - - - - -
22/01:00am 17.2 WSW 9 11 1019.6 - 0.0 - - - - - - -
22/12:30am 18.2 W 4 5 1019.5 - 0.0 - - - - - - -
22/12:00am 18.5 WSW 7 8 1019.7 - 0.0 - - - - - - -
 
Date/Time
EST
Temp

°C
Wind Pressure Rain
since 9am
mm
Weather Cloud Vis
km
Sea
Height
m
Swell
Dir
 
Speed
knots
Gust
knots
hPa Trend Height
m
Period
s
Dir
21/11:30pm 19.9 SE 4 6 1019.7 - 0.0 - - - - - - -
21/11:00pm 19.9 SE 5 8 1019.8 - 0.0 - - - - - - -
21/10:30pm 20.0 SE 5 8 1019.9 - 0.0 - - - - - - -
21/10:00pm 20.1 SE 6 9 1020.0 - 0.0 - - - - - - -
21/09:30pm 20.1 ESE 6 8 1020.0 - 0.0 - - - - - - -
21/09:00pm 20.4 E 6 8 1019.8 - 0.0 - - - - - - -
21/08:30pm 20.2 ESE 6 9 1019.8 - 0.0 - - - - - - -
21/08:00pm 20.2 ESE 5 7 1019.7 - 0.0 - - - - - - -
21/07:30pm 20.3 ESE 6 9 1019.4 - 0.0 - - - - - - -
21/07:00pm 20.4 E 6 8 1019.0 - 0.0 - - - - - - -
21/06:30pm 20.4 E 7 9 1018.6 - 0.0 - - - - - - -
21/06:00pm 20.3 ESE 6 9 1018.4 - 0.0 - - - - - - -
21/05:30pm 20.8 ESE 7 11 1018.0 - 0.0 - - - - - - -
21/05:00pm 20.8 ESE 7 9 1018.0 - 0.0 - - - - - - -
21/04:30pm 21.3 SE 5 9 1017.9 - 0.0 - - - - - - -
21/04:00pm 20.9 SSE 5 8 1018.0 - 0.0 - - - - - - -
21/03:30pm 20.4 S 6 9 1018.0 - 0.0 - - - - - - -
21/03:00pm 20.0 S 8 10 1018.0 - 0.0 - - - - - - -
21/02:30pm 20.1 S 8 10 1018.1 - 0.0 - - - - - - -
21/02:00pm 19.7 S 10 11 1018.3 - 0.0 - - - - - - -
21/01:30pm 19.7 S 10 11 1018.6 - 0.0 - - - - - - -
21/01:00pm 19.6 S 10 12 1018.9 - 0.0 - - - - - - -
21/12:30pm 19.4 S 10 12 1019.3 - 0.0 - - - - - - -
21/12:00pm 19.2 S 10 12 1019.8 - 0.0 - - - - - - -
21/11:30am 18.8 SSW 10 13 1020.3 - 0.0 - - - - - - -
21/11:00am 18.0 SSW 9 11 1020.7 - 0.0 - - - - - - -
21/10:30am 17.9 SSW 8 11 1020.9 - 0.0 - - - - - - -
21/10:00am 17.7 SW 9 11 1021.2 - 0.0 - - - - - - -
21/09:30am 17.3 SW 10 12 1021.1 - 0.0 - - - - - - -
21/09:00am 17.1 WSW 10 11 1020.9 - 0.0 - - - - - - -
21/08:30am 16.4 WSW 9 10 1020.7 - 0.0 - - - - - - -
21/08:00am 15.9 SW 9 11 1020.4 - 0.0 - - - - - - -
21/07:30am 16.0 SW 8 10 1020.2 - 0.0 - - - - - - -
21/07:00am 16.4 WSW 8 9 1019.9 - 0.0 - - - - - - -
21/06:30am 16.6 WSW 9 11 1019.7 - 0.0 - - - - - - -
21/06:00am 16.4 WSW 10 11 1019.3 - 0.0 - - - - - - -
21/05:30am 15.9 WSW 10 11 1019.2 - 0.0 - - - - - - -
21/05:00am 15.8 WSW 9 9 1018.9 - 0.0 - - - - - - -
21/04:30am 16.6 WSW 9 11 1018.8 - 0.0 - - - - - - -
21/04:00am 17.0 WSW 9 10 1018.8 - 0.0 - - - - - - -
21/03:30am 17.1 WSW 9 10 1018.9 - 0.0 - - - - - - -
21/03:00am 16.4 WSW 10 11 1019.0 - 0.0 - - - - - - -
21/02:30am 16.3 WSW 10 11 1019.0 - 0.0 - - - - - - -
21/02:00am 16.4 WSW 10 11 1019.3 - 0.0 - - - - - - -
21/01:30am 16.2 WSW 9 11 1019.5 - 0.0 - - - - - - -
21/01:00am 16.7 SW 10 11 1019.8 - 0.0 - - - - - - -
21/12:30am 17.1 SW 9 10 1020.0 - 0.0 - - - - - - -
21/12:00am 17.4 SW 10 10 1020.3 - 0.0 - - - - - - -
 
Date/Time
EST
Temp

°C
Wind Pressure Rain
since 9am
mm
Weather Cloud Vis
km
Sea
Height
m
Swell
Dir
 
Speed
knots
Gust
knots
hPa Trend Height
m
Period
s
Dir
20/11:30pm 17.4 SW 9 11 1020.2 - 0.0 - - - - - - -
20/11:00pm 17.7 SW 10 11 1020.4 - 0.0 - - - - - - -
20/10:30pm 19.5 ESE 5 8 1020.3 - 0.0 - - - - - - -
20/10:00pm 19.5 ESE 5 8 1020.5 - 0.0 - - - - - - -
20/09:30pm 19.5 ESE 7 9 1020.5 - 0.0 - - - - - - -
20/09:00pm 19.4 ESE 6 9 1020.4 - 0.0 - - - - - - -
20/08:30pm 19.3 ESE 6 9 1020.3 - 0.0 - - - - - - -
20/08:00pm 19.3 SE 6 9 1020.1 - 0.0 - - - - - - -
20/07:30pm 19.1 SE 6 9 1019.8 - 0.0 - - - - - - -
20/07:00pm 19.1 ESE 7 10 1019.5 - 0.0 - - - - - - -
20/06:30pm 19.1 ESE 7 11 1019.1 - 0.0 - - - - - - -
20/06:00pm 19.1 E 6 11 1018.8 - 0.0 - - - - - - -
20/05:30pm 19.6 ESE 8 12 1018.5 - 0.0 - - - - - - -
20/05:00pm 20.0 ESE 7 10 1018.4 - 0.0 - - - - - - -
20/04:30pm 20.1 ESE 8 11 1018.2 - 0.0 - - - - - - -
20/04:00pm 20.2 S 5 8 1018.1 - 0.0 - - - - - - -
20/03:30pm 20.0 S 8 11 1018.0 - 0.0 - - - - - - -
20/03:00pm 19.7 S 9 12 1018.0 - 0.0 - - - - - - -
20/02:30pm 19.7 S 9 12 1018.0 - 0.0 - - - - - - -
20/02:00pm 19.6 S 9 11 1018.2 - 0.0 - - - - - - -
20/01:30pm 19.5 S 9 11 1018.4 - 0.0 - - - - - - -
20/01:00pm 19.3 S 9 11 1018.7 - 0.0 - - - - - - -
20/12:30pm 19.1 S 10 12 1019.3 - 0.0 - - - - - - -
20/12:00pm 18.8 S 11 14 1019.8 - 0.0 - - - - - - -
20/11:30am 18.5 S 11 14 1020.3 - 0.0 - - - - - - -
20/11:00am 18.0 SSW 10 13 1020.4 - 0.0 - - - - - - -
20/10:30am 17.7 SSW 10 12 1020.7 - 0.0 - - - - - - -
20/10:00am 17.4 SSW 9 11 1020.9 - 0.0 - - - - - - -
20/09:30am 17.1 SW 10 11 1020.9 - 0.0 - - - - - - -
20/09:00am 16.7 SW 9 10 1020.7 - 0.0 - - - - - - -
20/08:30am 15.6 SW 9 11 1020.5 - 0.0 - - - - - - -
20/08:00am 14.8 WSW 12 15 1020.2 - 0.0 - - - - - - -
20/07:30am 14.3 WSW 14 15 1020.0 - 0.0 - - - - - - -
20/07:00am 13.8 SW 13 14 1019.6 - 0.0 - - - - - - -
20/06:30am 13.5 SW 11 12 1019.2 - 0.0 - - - - - - -
20/06:00am 13.4 SW 10 11 1018.9 - 0.0 - - - - - - -
20/05:30am 14.1 WSW 11 11 1018.6 - 0.0 - - - - - - -
20/05:00am 14.7 WSW 10 11 1018.2 - 0.0 - - - - - - -
20/04:30am 16.8 SW 6 7 1018.1 - 0.0 - - - - - - -
20/04:00am 16.4 WSW 8 9 1017.9 - 0.0 - - - - - - -
20/03:30am 16.1 WSW 8 9 1018.2 - 0.0 - - - - - - -
20/03:00am 15.8 WSW 10 11 1018.6 - 0.0 - - - - - - -
20/02:30am 15.6 WSW 10 11 1018.9 - 0.0 - - - - - - -
20/02:00am 15.9 WSW 9 11 1019.0 - 0.0 - - - - - - -
20/01:30am 15.6 WSW 10 11 1019.1 - 0.0 - - - - - - -
20/01:00am 15.7 WSW 10 11 1019.2 - 0.0 - - - - - - -
20/12:30am 15.7 WSW 11 12 1019.3 - 0.0 - - - - - - -
20/12:00am 15.6 WSW 10 12 1019.3 - 0.0 - - - - - - -
 
Date/Time
EST
Temp

°C
Wind Pressure Rain
since 9am
mm
Weather Cloud Vis
km
Sea
Height
m
Swell
Dir
 
Speed
knots
Gust
knots
hPa Trend Height
m
Period
s
Dir
19/11:30pm 16.6 SW 9 10 1019.1 - 0.0 - - - - - - -
19/11:00pm 17.5 SW 8 9 1019.3 - 0.0 - - - - - - -
19/10:30pm 17.2 SW 8 9 1019.4 - 0.0 - - - - - - -
19/10:00pm 18.2 SSE 3 8 1019.6 - 0.0 - - - - - - -
19/09:30pm 19.4 S 3 5 1019.7 - 0.0 - - - - - - -
19/09:00pm 19.4 SE 4 6 1019.6 - 0.0 - - - - - - -
19/08:30pm 19.5 SE 5 8 1019.4 - 0.0 - - - - - - -
19/08:00pm 19.6 ESE 5 7 1019.1 - 0.0 - - - - - - -
19/07:30pm 19.5 ESE 5 8 1018.9 - 0.0 - - - - - - -

Other Formats:

Comma delimited format used in spreadsheet applications
http://www.bom.gov.au/fwo/IDQ60701/IDQ60701.94295.axf

JavaScript Object Notation format (JSON) in row-major order
http://www.bom.gov.au/fwo/IDQ60701/IDQ60701.94295.json